sensor_id;sensor_type;location;lat;lon;timestamp;P1;durP1;ratioP1;P2;durP2;ratioP2
46481;SDS011;32193;51.446;6.792;2022-08-21T00:01:54;13.50;;;4.32;;
46481;SDS011;32193;51.446;6.792;2022-08-21T00:04:20;12.85;;;4.60;;
46481;SDS011;32193;51.446;6.792;2022-08-21T00:06:46;13.65;;;4.60;;
46481;SDS011;32193;51.446;6.792;2022-08-21T00:09:11;13.32;;;4.88;;
46481;SDS011;32193;51.446;6.792;2022-08-21T00:11:37;12.45;;;5.32;;
46481;SDS011;32193;51.446;6.792;2022-08-21T00:14:04;11.50;;;4.47;;
46481;SDS011;32193;51.446;6.792;2022-08-21T00:16:31;13.85;;;4.90;;
46481;SDS011;32193;51.446;6.792;2022-08-21T00:18:56;12.98;;;4.68;;
46481;SDS011;32193;51.446;6.792;2022-08-21T00:21:22;15.63;;;5.10;;
46481;SDS011;32193;51.446;6.792;2022-08-21T00:23:50;15.88;;;5.22;;
46481;SDS011;32193;51.446;6.792;2022-08-21T00:26:15;14.63;;;4.50;;
46481;SDS011;32193;51.446;6.792;2022-08-21T00:28:41;10.13;;;4.28;;
46481;SDS011;32193;51.446;6.792;2022-08-21T00:31:07;16.63;;;5.13;;
46481;SDS011;32193;51.446;6.792;2022-08-21T00:33:33;15.20;;;4.93;;
46481;SDS011;32193;51.446;6.792;2022-08-21T00:35:59;12.75;;;5.05;;
46481;SDS011;32193;51.446;6.792;2022-08-21T00:38:25;14.10;;;4.72;;
46481;SDS011;32193;51.446;6.792;2022-08-21T00:40:52;14.82;;;4.68;;
46481;SDS011;32193;51.446;6.792;2022-08-21T00:43:21;11.68;;;4.30;;
46481;SDS011;32193;51.446;6.792;2022-08-21T00:45:53;11.52;;;4.68;;
46481;SDS011;32193;51.446;6.792;2022-08-21T00:48:20;13.70;;;4.70;;
46481;SDS011;32193;51.446;6.792;2022-08-21T00:50:48;17.75;;;5.40;;
46481;SDS011;32193;51.446;6.792;2022-08-21T00:55:45;13.70;;;5.70;;
46481;SDS011;32193;51.446;6.792;2022-08-21T00:58:12;15.93;;;5.75;;
46481;SDS011;32193;51.446;6.792;2022-08-21T01:00:40;12.63;;;5.28;;
46481;SDS011;32193;51.446;6.792;2022-08-21T01:03:10;12.50;;;5.35;;
46481;SDS011;32193;51.446;6.792;2022-08-21T01:05:38;14.27;;;5.20;;
46481;SDS011;32193;51.446;6.792;2022-08-21T01:08:04;17.65;;;5.30;;
46481;SDS011;32193;51.446;6.792;2022-08-21T01:10:32;11.35;;;4.80;;
46481;SDS011;32193;51.446;6.792;2022-08-21T01:12:58;13.43;;;5.68;;
46481;SDS011;32193;51.446;6.792;2022-08-21T01:15:26;18.98;;;6.13;;
46481;SDS011;32193;51.446;6.792;2022-08-21T01:17:55;17.92;;;5.70;;
46481;SDS011;32193;51.446;6.792;2022-08-21T01:20:21;13.77;;;5.93;;
46481;SDS011;32193;51.446;6.792;2022-08-21T01:22:47;13.38;;;5.50;;
46481;SDS011;32193;51.446;6.792;2022-08-21T01:25:18;10.65;;;5.43;;
46481;SDS011;32193;51.446;6.792;2022-08-21T01:27:47;14.30;;;6.28;;
46481;SDS011;32193;51.446;6.792;2022-08-21T01:32:42;12.10;;;5.97;;
46481;SDS011;32193;51.446;6.792;2022-08-21T01:35:09;11.65;;;5.78;;
46481;SDS011;32193;51.446;6.792;2022-08-21T01:37:36;13.52;;;5.70;;
46481;SDS011;32193;51.446;6.792;2022-08-21T01:40:03;14.98;;;6.80;;
46481;SDS011;32193;51.446;6.792;2022-08-21T01:42:29;16.88;;;6.07;;
46481;SDS011;32193;51.446;6.792;2022-08-21T01:44:55;15.95;;;5.88;;
46481;SDS011;32193;51.446;6.792;2022-08-21T01:47:21;17.42;;;6.03;;
46481;SDS011;32193;51.446;6.792;2022-08-21T01:49:47;13.70;;;6.05;;
46481;SDS011;32193;51.446;6.792;2022-08-21T01:52:12;14.25;;;6.00;;
46481;SDS011;32193;51.446;6.792;2022-08-21T01:54:38;13.50;;;6.18;;
46481;SDS011;32193;51.446;6.792;2022-08-21T01:57:04;16.48;;;5.78;;
46481;SDS011;32193;51.446;6.792;2022-08-21T01:59:31;14.15;;;6.40;;
46481;SDS011;32193;51.446;6.792;2022-08-21T02:01:56;15.30;;;5.55;;
46481;SDS011;32193;51.446;6.792;2022-08-21T02:04:22;14.85;;;6.03;;
46481;SDS011;32193;51.446;6.792;2022-08-21T02:06:48;18.90;;;7.22;;
46481;SDS011;32193;51.446;6.792;2022-08-21T02:09:14;18.23;;;7.20;;
46481;SDS011;32193;51.446;6.792;2022-08-21T02:11:41;15.13;;;6.18;;
46481;SDS011;32193;51.446;6.792;2022-08-21T02:14:08;19.23;;;6.82;;
46481;SDS011;32193;51.446;6.792;2022-08-21T02:16:39;14.13;;;6.65;;
46481;SDS011;32193;51.446;6.792;2022-08-21T02:19:05;18.38;;;6.43;;
46481;SDS011;32193;51.446;6.792;2022-08-21T02:21:31;14.63;;;6.70;;
46481;SDS011;32193;51.446;6.792;2022-08-21T02:23:57;14.90;;;6.20;;
46481;SDS011;32193;51.446;6.792;2022-08-21T02:26:24;12.63;;;6.82;;
46481;SDS011;32193;51.446;6.792;2022-08-21T02:28:50;12.82;;;5.85;;
46481;SDS011;32193;51.446;6.792;2022-08-21T02:31:16;15.85;;;6.22;;
46481;SDS011;32193;51.446;6.792;2022-08-21T02:33:41;14.00;;;6.47;;
46481;SDS011;32193;51.446;6.792;2022-08-21T02:36:07;14.27;;;6.25;;
46481;SDS011;32193;51.446;6.792;2022-08-21T02:38:35;13.98;;;6.32;;
46481;SDS011;32193;51.446;6.792;2022-08-21T02:41:03;15.43;;;5.80;;
46481;SDS011;32193;51.446;6.792;2022-08-21T02:43:30;19.98;;;6.72;;
46481;SDS011;32193;51.446;6.792;2022-08-21T02:45:56;15.23;;;6.47;;
46481;SDS011;32193;51.446;6.792;2022-08-21T02:48:24;13.00;;;6.30;;
46481;SDS011;32193;51.446;6.792;2022-08-21T02:50:53;11.57;;;5.40;;
46481;SDS011;32193;51.446;6.792;2022-08-21T02:53:23;16.00;;;5.88;;
46481;SDS011;32193;51.446;6.792;2022-08-21T02:55:50;12.57;;;5.38;;
46481;SDS011;32193;51.446;6.792;2022-08-21T02:58:19;14.13;;;5.95;;
46481;SDS011;32193;51.446;6.792;2022-08-21T03:00:50;14.57;;;5.75;;
46481;SDS011;32193;51.446;6.792;2022-08-21T03:03:16;17.17;;;5.68;;
46481;SDS011;32193;51.446;6.792;2022-08-21T03:05:42;11.65;;;5.30;;
46481;SDS011;32193;51.446;6.792;2022-08-21T03:08:09;12.85;;;5.65;;
46481;SDS011;32193;51.446;6.792;2022-08-21T03:10:37;15.48;;;6.05;;
46481;SDS011;32193;51.446;6.792;2022-08-21T03:13:05;16.40;;;5.40;;
46481;SDS011;32193;51.446;6.792;2022-08-21T03:15:31;14.40;;;5.68;;
46481;SDS011;32193;51.446;6.792;2022-08-21T03:17:57;11.75;;;5.55;;
46481;SDS011;32193;51.446;6.792;2022-08-21T03:20:24;13.05;;;5.93;;
46481;SDS011;32193;51.446;6.792;2022-08-21T03:22:52;8.95;;;5.43;;
46481;SDS011;32193;51.446;6.792;2022-08-21T03:25:18;11.80;;;5.18;;
46481;SDS011;32193;51.446;6.792;2022-08-21T03:27:45;13.68;;;5.35;;
46481;SDS011;32193;51.446;6.792;2022-08-21T03:30:13;17.15;;;6.03;;
46481;SDS011;32193;51.446;6.792;2022-08-21T03:32:40;10.38;;;5.13;;
46481;SDS011;32193;51.446;6.792;2022-08-21T03:35:06;14.13;;;5.95;;
46481;SDS011;32193;51.446;6.792;2022-08-21T03:37:32;16.45;;;6.15;;
46481;SDS011;32193;51.446;6.792;2022-08-21T03:39:58;11.57;;;5.35;;
46481;SDS011;32193;51.446;6.792;2022-08-21T03:42:24;12.38;;;5.68;;
46481;SDS011;32193;51.446;6.792;2022-08-21T03:44:50;14.77;;;5.32;;
46481;SDS011;32193;51.446;6.792;2022-08-21T03:47:16;15.05;;;6.57;;
46481;SDS011;32193;51.446;6.792;2022-08-21T03:49:41;13.02;;;5.28;;
46481;SDS011;32193;51.446;6.792;2022-08-21T03:52:07;14.43;;;6.07;;
46481;SDS011;32193;51.446;6.792;2022-08-21T03:54:33;21.42;;;7.15;;
46481;SDS011;32193;51.446;6.792;2022-08-21T03:56:59;15.68;;;6.25;;
46481;SDS011;32193;51.446;6.792;2022-08-21T03:59:25;11.00;;;6.63;;
46481;SDS011;32193;51.446;6.792;2022-08-21T04:01:54;15.93;;;6.95;;
46481;SDS011;32193;51.446;6.792;2022-08-21T04:04:25;15.20;;;7.68;;
46481;SDS011;32193;51.446;6.792;2022-08-21T04:06:52;13.70;;;6.55;;
46481;SDS011;32193;51.446;6.792;2022-08-21T04:09:19;14.50;;;7.32;;
46481;SDS011;32193;51.446;6.792;2022-08-21T04:11:45;18.08;;;7.15;;
46481;SDS011;32193;51.446;6.792;2022-08-21T04:14:12;15.88;;;7.90;;
46481;SDS011;32193;51.446;6.792;2022-08-21T04:16:39;18.27;;;7.45;;
46481;SDS011;32193;51.446;6.792;2022-08-21T04:19:05;13.57;;;6.53;;
46481;SDS011;32193;51.446;6.792;2022-08-21T04:21:30;15.25;;;7.18;;
46481;SDS011;32193;51.446;6.792;2022-08-21T04:23:57;12.60;;;6.45;;
46481;SDS011;32193;51.446;6.792;2022-08-21T04:26:24;20.88;;;8.00;;
46481;SDS011;32193;51.446;6.792;2022-08-21T04:28:50;22.10;;;7.70;;
46481;SDS011;32193;51.446;6.792;2022-08-21T04:31:17;15.65;;;6.80;;
46481;SDS011;32193;51.446;6.792;2022-08-21T04:33:43;15.60;;;7.18;;
46481;SDS011;32193;51.446;6.792;2022-08-21T04:36:09;13.35;;;7.15;;
46481;SDS011;32193;51.446;6.792;2022-08-21T04:38:36;16.05;;;7.40;;
46481;SDS011;32193;51.446;6.792;2022-08-21T04:41:02;12.63;;;6.85;;
46481;SDS011;32193;51.446;6.792;2022-08-21T04:43:29;24.20;;;7.82;;
46481;SDS011;32193;51.446;6.792;2022-08-21T04:45:55;14.82;;;6.40;;
46481;SDS011;32193;51.446;6.792;2022-08-21T04:48:21;15.20;;;7.20;;
46481;SDS011;32193;51.446;6.792;2022-08-21T04:51:09;14.57;;;7.35;;
46481;SDS011;32193;51.446;6.792;2022-08-21T04:53:55;18.17;;;7.10;;
46481;SDS011;32193;51.446;6.792;2022-08-21T04:59:10;14.23;;;7.60;;
46481;SDS011;32193;51.446;6.792;2022-08-21T05:01:41;15.82;;;7.72;;
46481;SDS011;32193;51.446;6.792;2022-08-21T05:04:09;15.38;;;7.28;;
46481;SDS011;32193;51.446;6.792;2022-08-21T05:06:37;18.13;;;8.77;;
46481;SDS011;32193;51.446;6.792;2022-08-21T05:09:04;15.75;;;8.20;;
46481;SDS011;32193;51.446;6.792;2022-08-21T05:11:30;13.43;;;7.60;;
46481;SDS011;32193;51.446;6.792;2022-08-21T05:13:57;14.60;;;8.43;;
46481;SDS011;32193;51.446;6.792;2022-08-21T05:16:22;14.68;;;7.57;;
46481;SDS011;32193;51.446;6.792;2022-08-21T05:18:48;18.63;;;8.00;;
46481;SDS011;32193;51.446;6.792;2022-08-21T05:21:15;24.15;;;9.43;;
46481;SDS011;32193;51.446;6.792;2022-08-21T05:23:40;16.63;;;8.43;;
46481;SDS011;32193;51.446;6.792;2022-08-21T05:26:07;15.15;;;6.72;;
46481;SDS011;32193;51.446;6.792;2022-08-21T05:28:33;17.77;;;6.85;;
46481;SDS011;32193;51.446;6.792;2022-08-21T05:30:58;16.63;;;7.60;;
46481;SDS011;32193;51.446;6.792;2022-08-21T05:33:24;12.40;;;6.85;;
46481;SDS011;32193;51.446;6.792;2022-08-21T05:35:51;20.05;;;7.78;;
46481;SDS011;32193;51.446;6.792;2022-08-21T05:38:17;16.65;;;7.05;;
46481;SDS011;32193;51.446;6.792;2022-08-21T05:40:44;14.30;;;6.75;;
46481;SDS011;32193;51.446;6.792;2022-08-21T05:43:10;18.38;;;7.82;;
46481;SDS011;32193;51.446;6.792;2022-08-21T05:45:36;13.80;;;7.40;;
46481;SDS011;32193;51.446;6.792;2022-08-21T05:48:07;11.32;;;5.55;;
46481;SDS011;32193;51.446;6.792;2022-08-21T05:50:38;13.95;;;7.20;;
46481;SDS011;32193;51.446;6.792;2022-08-21T05:53:04;11.57;;;6.40;;
46481;SDS011;32193;51.446;6.792;2022-08-21T05:55:30;14.55;;;6.85;;
46481;SDS011;32193;51.446;6.792;2022-08-21T05:57:56;10.77;;;5.90;;
46481;SDS011;32193;51.446;6.792;2022-08-21T06:00:21;18.08;;;5.90;;
46481;SDS011;32193;51.446;6.792;2022-08-21T06:02:48;11.35;;;6.35;;
46481;SDS011;32193;51.446;6.792;2022-08-21T06:05:15;15.02;;;7.03;;
46481;SDS011;32193;51.446;6.792;2022-08-21T06:07:42;13.40;;;6.75;;
46481;SDS011;32193;51.446;6.792;2022-08-21T06:10:07;14.23;;;5.95;;
46481;SDS011;32193;51.446;6.792;2022-08-21T06:12:33;13.77;;;6.45;;
46481;SDS011;32193;51.446;6.792;2022-08-21T06:14:59;16.33;;;6.68;;
46481;SDS011;32193;51.446;6.792;2022-08-21T06:17:24;14.05;;;6.45;;
46481;SDS011;32193;51.446;6.792;2022-08-21T06:19:51;12.48;;;5.85;;
46481;SDS011;32193;51.446;6.792;2022-08-21T06:22:17;16.67;;;6.50;;
46481;SDS011;32193;51.446;6.792;2022-08-21T06:24:43;11.18;;;6.25;;
46481;SDS011;32193;51.446;6.792;2022-08-21T06:27:08;16.23;;;6.93;;
46481;SDS011;32193;51.446;6.792;2022-08-21T06:29:34;13.55;;;4.85;;
46481;SDS011;32193;51.446;6.792;2022-08-21T06:32:00;10.18;;;4.13;;
46481;SDS011;32193;51.446;6.792;2022-08-21T06:34:26;13.25;;;5.03;;
46481;SDS011;32193;51.446;6.792;2022-08-21T06:36:52;12.95;;;4.75;;
46481;SDS011;32193;51.446;6.792;2022-08-21T06:39:17;12.00;;;4.90;;
46481;SDS011;32193;51.446;6.792;2022-08-21T06:41:43;12.75;;;4.75;;
46481;SDS011;32193;51.446;6.792;2022-08-21T06:44:08;13.63;;;4.88;;
46481;SDS011;32193;51.446;6.792;2022-08-21T06:46:34;12.18;;;4.18;;
46481;SDS011;32193;51.446;6.792;2022-08-21T06:49:00;15.52;;;4.90;;
46481;SDS011;32193;51.446;6.792;2022-08-21T06:51:26;10.23;;;3.58;;
46481;SDS011;32193;51.446;6.792;2022-08-21T06:53:52;13.70;;;4.65;;
46481;SDS011;32193;51.446;6.792;2022-08-21T06:56:18;14.07;;;3.85;;
46481;SDS011;32193;51.446;6.792;2022-08-21T06:58:44;15.63;;;4.43;;
46481;SDS011;32193;51.446;6.792;2022-08-21T07:01:10;12.40;;;4.38;;
46481;SDS011;32193;51.446;6.792;2022-08-21T07:03:38;12.63;;;3.95;;
46481;SDS011;32193;51.446;6.792;2022-08-21T07:06:05;12.77;;;3.28;;
46481;SDS011;32193;51.446;6.792;2022-08-21T07:08:32;15.68;;;3.85;;
46481;SDS011;32193;51.446;6.792;2022-08-21T07:10:58;13.30;;;4.55;;
46481;SDS011;32193;51.446;6.792;2022-08-21T07:13:26;10.93;;;3.60;;
46481;SDS011;32193;51.446;6.792;2022-08-21T07:15:52;16.10;;;4.43;;
46481;SDS011;32193;51.446;6.792;2022-08-21T07:18:18;13.52;;;4.07;;
46481;SDS011;32193;51.446;6.792;2022-08-21T07:20:44;8.30;;;3.10;;
46481;SDS011;32193;51.446;6.792;2022-08-21T07:23:45;9.32;;;2.95;;
46481;SDS011;32193;51.446;6.792;2022-08-21T07:26:06;12.00;;;3.10;;
46481;SDS011;32193;51.446;6.792;2022-08-21T07:28:31;12.10;;;3.58;;
46481;SDS011;32193;51.446;6.792;2022-08-21T07:30:58;14.00;;;3.15;;
46481;SDS011;32193;51.446;6.792;2022-08-21T07:33:25;12.90;;;3.10;;
46481;SDS011;32193;51.446;6.792;2022-08-21T07:35:53;9.73;;;2.63;;
46481;SDS011;32193;51.446;6.792;2022-08-21T07:38:19;7.32;;;2.55;;
46481;SDS011;32193;51.446;6.792;2022-08-21T07:40:46;12.40;;;2.95;;
46481;SDS011;32193;51.446;6.792;2022-08-21T07:43:14;8.13;;;2.33;;
46481;SDS011;32193;51.446;6.792;2022-08-21T07:45:41;8.75;;;2.75;;
46481;SDS011;32193;51.446;6.792;2022-08-21T07:48:07;9.95;;;3.00;;
46481;SDS011;32193;51.446;6.792;2022-08-21T07:50:33;9.90;;;2.60;;
46481;SDS011;32193;51.446;6.792;2022-08-21T07:52:58;7.43;;;2.42;;
46481;SDS011;32193;51.446;6.792;2022-08-21T07:55:24;11.43;;;2.30;;
46481;SDS011;32193;51.446;6.792;2022-08-21T07:57:50;11.13;;;2.20;;
46481;SDS011;32193;51.446;6.792;2022-08-21T08:00:18;8.18;;;2.30;;
46481;SDS011;32193;51.446;6.792;2022-08-21T08:02:46;7.25;;;1.38;;
46481;SDS011;32193;51.446;6.792;2022-08-21T08:05:18;8.38;;;1.73;;
46481;SDS011;32193;51.446;6.792;2022-08-21T08:07:46;9.43;;;1.73;;
46481;SDS011;32193;51.446;6.792;2022-08-21T08:10:12;6.53;;;1.65;;
46481;SDS011;32193;51.446;6.792;2022-08-21T08:12:38;6.88;;;1.50;;
46481;SDS011;32193;51.446;6.792;2022-08-21T08:15:06;9.10;;;1.65;;
46481;SDS011;32193;51.446;6.792;2022-08-21T08:17:41;5.53;;;1.42;;
46481;SDS011;32193;51.446;6.792;2022-08-21T08:20:07;5.97;;;1.30;;
46481;SDS011;32193;51.446;6.792;2022-08-21T08:22:34;7.10;;;1.52;;
46481;SDS011;32193;51.446;6.792;2022-08-21T08:25:01;6.68;;;1.25;;
46481;SDS011;32193;51.446;6.792;2022-08-21T08:27:27;5.63;;;1.45;;
46481;SDS011;32193;51.446;6.792;2022-08-21T08:29:53;6.97;;;1.48;;
46481;SDS011;32193;51.446;6.792;2022-08-21T08:32:19;7.18;;;1.40;;
46481;SDS011;32193;51.446;6.792;2022-08-21T08:34:45;45.50;;;29.45;;
46481;SDS011;32193;51.446;6.792;2022-08-21T08:37:12;7.07;;;1.40;;
46481;SDS011;32193;51.446;6.792;2022-08-21T08:39:38;8.45;;;1.35;;
46481;SDS011;32193;51.446;6.792;2022-08-21T08:44:38;6.32;;;1.15;;
46481;SDS011;32193;51.446;6.792;2022-08-21T08:47:15;6.15;;;1.40;;
46481;SDS011;32193;51.446;6.792;2022-08-21T08:52:23;6.88;;;1.42;;
46481;SDS011;32193;51.446;6.792;2022-08-21T08:55:07;5.32;;;1.15;;
46481;SDS011;32193;51.446;6.792;2022-08-21T08:57:35;5.30;;;1.27;;
46481;SDS011;32193;51.446;6.792;2022-08-21T09:00:05;6.78;;;1.58;;
46481;SDS011;32193;51.446;6.792;2022-08-21T09:02:34;7.43;;;1.10;;
46481;SDS011;32193;51.446;6.792;2022-08-21T09:05:05;6.28;;;1.23;;
46481;SDS011;32193;51.446;6.792;2022-08-21T09:10:13;5.20;;;1.00;;
46481;SDS011;32193;51.446;6.792;2022-08-21T09:12:48;7.78;;;1.30;;
46481;SDS011;32193;51.446;6.792;2022-08-21T09:15:29;6.13;;;1.33;;
46481;SDS011;32193;51.446;6.792;2022-08-21T09:23:13;6.07;;;1.25;;
46481;SDS011;32193;51.446;6.792;2022-08-21T09:28:36;5.47;;;1.30;;
46481;SDS011;32193;51.446;6.792;2022-08-21T09:31:03;7.88;;;1.35;;
46481;SDS011;32193;51.446;6.792;2022-08-21T09:33:32;4.70;;;1.00;;
46481;SDS011;32193;51.446;6.792;2022-08-21T09:35:58;8.02;;;1.20;;
46481;SDS011;32193;51.446;6.792;2022-08-21T09:38:31;5.25;;;1.25;;
46481;SDS011;32193;51.446;6.792;2022-08-21T09:41:03;5.40;;;1.10;;
46481;SDS011;32193;51.446;6.792;2022-08-21T09:43:30;6.20;;;1.10;;
46481;SDS011;32193;51.446;6.792;2022-08-21T09:46:05;5.93;;;1.48;;
46481;SDS011;32193;51.446;6.792;2022-08-21T09:48:39;5.80;;;1.45;;
46481;SDS011;32193;51.446;6.792;2022-08-21T09:54:12;8.77;;;1.75;;
46481;SDS011;32193;51.446;6.792;2022-08-21T09:57:00;5.65;;;1.00;;
46481;SDS011;32193;51.446;6.792;2022-08-21T09:59:55;7.60;;;1.48;;
46481;SDS011;32193;51.446;6.792;2022-08-21T10:02:34;6.43;;;1.20;;
46481;SDS011;32193;51.446;6.792;2022-08-21T10:05:02;5.00;;;1.23;;
46481;SDS011;32193;51.446;6.792;2022-08-21T10:07:32;7.75;;;1.20;;
46481;SDS011;32193;51.446;6.792;2022-08-21T10:10:12;3.58;;;1.00;;
46481;SDS011;32193;51.446;6.792;2022-08-21T10:16:02;5.97;;;1.23;;
46481;SDS011;32193;51.446;6.792;2022-08-21T10:18:40;4.87;;;1.03;;
46481;SDS011;32193;51.446;6.792;2022-08-21T10:21:29;7.97;;;1.20;;
46481;SDS011;32193;51.446;6.792;2022-08-21T10:24:05;6.80;;;1.92;;
46481;SDS011;32193;51.446;6.792;2022-08-21T10:34:27;4.88;;;1.13;;
46481;SDS011;32193;51.446;6.792;2022-08-21T10:42:52;6.60;;;1.48;;
46481;SDS011;32193;51.446;6.792;2022-08-21T10:48:43;6.07;;;1.38;;
46481;SDS011;32193;51.446;6.792;2022-08-21T10:51:31;6.00;;;1.33;;
46481;SDS011;32193;51.446;6.792;2022-08-21T10:56:51;4.57;;;1.08;;
46481;SDS011;32193;51.446;6.792;2022-08-21T10:59:28;3.45;;;0.80;;
46481;SDS011;32193;51.446;6.792;2022-08-21T11:02:03;5.10;;;1.00;;
46481;SDS011;32193;51.446;6.792;2022-08-21T11:07:18;6.32;;;1.00;;
46481;SDS011;32193;51.446;6.792;2022-08-21T11:09:48;6.70;;;1.27;;
46481;SDS011;32193;51.446;6.792;2022-08-21T11:15:05;4.63;;;0.95;;
46481;SDS011;32193;51.446;6.792;2022-08-21T11:17:34;6.88;;;1.80;;
46481;SDS011;32193;51.446;6.792;2022-08-21T11:20:17;6.30;;;1.13;;
46481;SDS011;32193;51.446;6.792;2022-08-21T11:23:13;5.13;;;0.90;;
46481;SDS011;32193;51.446;6.792;2022-08-21T11:25:47;6.38;;;1.70;;
46481;SDS011;32193;51.446;6.792;2022-08-21T11:41:43;4.57;;;0.93;;
46481;SDS011;32193;51.446;6.792;2022-08-21T11:47:06;6.10;;;1.35;;
46481;SDS011;32193;51.446;6.792;2022-08-21T11:52:20;6.05;;;1.10;;
46481;SDS011;32193;51.446;6.792;2022-08-21T11:57:27;6.88;;;1.08;;
46481;SDS011;32193;51.446;6.792;2022-08-21T12:02:34;4.05;;;0.80;;
46481;SDS011;32193;51.446;6.792;2022-08-21T12:05:05;4.15;;;0.90;;
46481;SDS011;32193;51.446;6.792;2022-08-21T12:07:36;4.38;;;0.90;;
46481;SDS011;32193;51.446;6.792;2022-08-21T12:10:06;6.00;;;1.05;;
46481;SDS011;32193;51.446;6.792;2022-08-21T12:12:39;5.95;;;1.20;;
46481;SDS011;32193;51.446;6.792;2022-08-21T12:21:04;8.43;;;1.40;;
46481;SDS011;32193;51.446;6.792;2022-08-21T12:26:36;5.47;;;1.20;;
46481;SDS011;32193;51.446;6.792;2022-08-21T12:31:55;4.22;;;0.98;;
46481;SDS011;32193;51.446;6.792;2022-08-21T12:34:31;4.57;;;0.85;;
46481;SDS011;32193;51.446;6.792;2022-08-21T12:37:05;4.15;;;0.80;;
46481;SDS011;32193;51.446;6.792;2022-08-21T12:39:39;3.55;;;0.90;;
46481;SDS011;32193;51.446;6.792;2022-08-21T12:42:15;3.97;;;1.00;;
46481;SDS011;32193;51.446;6.792;2022-08-21T12:44:51;4.65;;;0.85;;
46481;SDS011;32193;51.446;6.792;2022-08-21T12:47:25;6.28;;;1.25;;
46481;SDS011;32193;51.446;6.792;2022-08-21T12:53:25;7.40;;;1.33;;
46481;SDS011;32193;51.446;6.792;2022-08-21T12:55:30;6.47;;;1.33;;
46481;SDS011;32193;51.446;6.792;2022-08-21T12:57:58;6.10;;;1.52;;
46481;SDS011;32193;51.446;6.792;2022-08-21T13:00:25;5.85;;;1.10;;
46481;SDS011;32193;51.446;6.792;2022-08-21T13:02:52;5.80;;;1.20;;
46481;SDS011;32193;51.446;6.792;2022-08-21T13:05:30;8.02;;;1.38;;
46481;SDS011;32193;51.446;6.792;2022-08-21T13:07:59;5.20;;;0.98;;
46481;SDS011;32193;51.446;6.792;2022-08-21T13:10:30;4.43;;;0.82;;
46481;SDS011;32193;51.446;6.792;2022-08-21T13:12:58;4.45;;;0.90;;
46481;SDS011;32193;51.446;6.792;2022-08-21T13:15:28;6.65;;;1.17;;
46481;SDS011;32193;51.446;6.792;2022-08-21T13:17:56;5.10;;;0.90;;
46481;SDS011;32193;51.446;6.792;2022-08-21T13:20:28;8.40;;;1.38;;
46481;SDS011;32193;51.446;6.792;2022-08-21T13:23:03;6.55;;;1.30;;
46481;SDS011;32193;51.446;6.792;2022-08-21T13:25:35;5.65;;;1.10;;
46481;SDS011;32193;51.446;6.792;2022-08-21T13:28:12;5.72;;;1.17;;
46481;SDS011;32193;51.446;6.792;2022-08-21T13:30:47;8.40;;;1.40;;
46481;SDS011;32193;51.446;6.792;2022-08-21T13:33:16;12.75;;;9.38;;
46481;SDS011;32193;51.446;6.792;2022-08-21T13:35:49;6.20;;;1.60;;
46481;SDS011;32193;51.446;6.792;2022-08-21T13:38:22;3.97;;;1.00;;
46481;SDS011;32193;51.446;6.792;2022-08-21T13:40:53;4.70;;;0.93;;
46481;SDS011;32193;51.446;6.792;2022-08-21T13:43:26;3.65;;;1.00;;
46481;SDS011;32193;51.446;6.792;2022-08-21T13:48:21;6.45;;;1.00;;
46481;SDS011;32193;51.446;6.792;2022-08-21T13:50:50;5.07;;;0.93;;
46481;SDS011;32193;51.446;6.792;2022-08-21T13:53:27;6.10;;;1.05;;
46481;SDS011;32193;51.446;6.792;2022-08-21T13:55:55;5.30;;;0.95;;
46481;SDS011;32193;51.446;6.792;2022-08-21T14:00:53;8.00;;;1.30;;
46481;SDS011;32193;51.446;6.792;2022-08-21T14:06:01;4.35;;;0.90;;
46481;SDS011;32193;51.446;6.792;2022-08-21T14:08:36;9.20;;;1.17;;
46481;SDS011;32193;51.446;6.792;2022-08-21T14:11:05;7.53;;;1.77;;
46481;SDS011;32193;51.446;6.792;2022-08-21T14:13:40;5.15;;;1.38;;
46481;SDS011;32193;51.446;6.792;2022-08-21T14:16:18;5.97;;;1.33;;
46481;SDS011;32193;51.446;6.792;2022-08-21T14:18:47;6.68;;;1.05;;
46481;SDS011;32193;51.446;6.792;2022-08-21T14:21:13;7.30;;;1.35;;
46481;SDS011;32193;51.446;6.792;2022-08-21T14:24:06;6.88;;;1.08;;
46481;SDS011;32193;51.446;6.792;2022-08-21T14:26:34;5.75;;;1.58;;
46481;SDS011;32193;51.446;6.792;2022-08-21T14:29:01;7.30;;;1.65;;
46481;SDS011;32193;51.446;6.792;2022-08-21T14:31:33;4.40;;;1.20;;
46481;SDS011;32193;51.446;6.792;2022-08-21T14:33:59;5.93;;;1.20;;
46481;SDS011;32193;51.446;6.792;2022-08-21T14:36:26;5.13;;;1.48;;
46481;SDS011;32193;51.446;6.792;2022-08-21T14:38:52;8.73;;;1.55;;
46481;SDS011;32193;51.446;6.792;2022-08-21T14:41:18;5.05;;;1.42;;
46481;SDS011;32193;51.446;6.792;2022-08-21T14:43:47;4.93;;;1.15;;
46481;SDS011;32193;51.446;6.792;2022-08-21T14:46:15;6.55;;;1.60;;
46481;SDS011;32193;51.446;6.792;2022-08-21T14:48:47;7.38;;;1.42;;
46481;SDS011;32193;51.446;6.792;2022-08-21T14:51:14;9.05;;;1.42;;
46481;SDS011;32193;51.446;6.792;2022-08-21T14:53:39;6.93;;;1.50;;
46481;SDS011;32193;51.446;6.792;2022-08-21T14:56:05;6.18;;;1.20;;
46481;SDS011;32193;51.446;6.792;2022-08-21T14:58:35;8.07;;;1.75;;
46481;SDS011;32193;51.446;6.792;2022-08-21T15:01:03;7.60;;;1.60;;
46481;SDS011;32193;51.446;6.792;2022-08-21T15:03:31;5.68;;;1.10;;
46481;SDS011;32193;51.446;6.792;2022-08-21T15:05:57;7.90;;;1.60;;
46481;SDS011;32193;51.446;6.792;2022-08-21T15:08:23;8.68;;;2.38;;
46481;SDS011;32193;51.446;6.792;2022-08-21T15:10:49;5.70;;;1.10;;
46481;SDS011;32193;51.446;6.792;2022-08-21T15:13:16;9.38;;;1.45;;
46481;SDS011;32193;51.446;6.792;2022-08-21T15:15:44;10.13;;;1.80;;
46481;SDS011;32193;51.446;6.792;2022-08-21T15:18:12;5.63;;;1.42;;
46481;SDS011;32193;51.446;6.792;2022-08-21T15:20:38;8.70;;;1.40;;
46481;SDS011;32193;51.446;6.792;2022-08-21T15:23:04;5.38;;;1.23;;
46481;SDS011;32193;51.446;6.792;2022-08-21T15:25:31;9.48;;;1.42;;
46481;SDS011;32193;51.446;6.792;2022-08-21T15:27:58;8.25;;;1.50;;
46481;SDS011;32193;51.446;6.792;2022-08-21T15:30:24;7.32;;;1.55;;
46481;SDS011;32193;51.446;6.792;2022-08-21T15:32:50;7.97;;;1.42;;
46481;SDS011;32193;51.446;6.792;2022-08-21T15:35:17;5.15;;;1.20;;
46481;SDS011;32193;51.446;6.792;2022-08-21T15:37:43;8.77;;;1.40;;
46481;SDS011;32193;51.446;6.792;2022-08-21T15:40:09;7.47;;;1.30;;
46481;SDS011;32193;51.446;6.792;2022-08-21T15:42:35;9.27;;;1.42;;
46481;SDS011;32193;51.446;6.792;2022-08-21T15:45:03;5.05;;;1.13;;
46481;SDS011;32193;51.446;6.792;2022-08-21T15:47:30;5.90;;;1.27;;
46481;SDS011;32193;51.446;6.792;2022-08-21T15:49:58;5.72;;;1.20;;
46481;SDS011;32193;51.446;6.792;2022-08-21T15:52:24;7.20;;;1.92;;
46481;SDS011;32193;51.446;6.792;2022-08-21T15:54:50;7.85;;;1.25;;
46481;SDS011;32193;51.446;6.792;2022-08-21T15:57:17;5.30;;;1.15;;
46481;SDS011;32193;51.446;6.792;2022-08-21T15:59:46;5.55;;;1.25;;
46481;SDS011;32193;51.446;6.792;2022-08-21T16:02:32;6.47;;;1.60;;
46481;SDS011;32193;51.446;6.792;2022-08-21T16:04:58;5.97;;;1.17;;
46481;SDS011;32193;51.446;6.792;2022-08-21T16:07:24;8.05;;;1.60;;
46481;SDS011;32193;51.446;6.792;2022-08-21T16:09:50;6.32;;;1.05;;
46481;SDS011;32193;51.446;6.792;2022-08-21T16:12:26;5.43;;;1.30;;
46481;SDS011;32193;51.446;6.792;2022-08-21T16:14:56;6.13;;;1.40;;
46481;SDS011;32193;51.446;6.792;2022-08-21T16:17:24;5.95;;;1.30;;
46481;SDS011;32193;51.446;6.792;2022-08-21T16:19:54;8.68;;;1.77;;
46481;SDS011;32193;51.446;6.792;2022-08-21T16:22:20;7.03;;;1.35;;
46481;SDS011;32193;51.446;6.792;2022-08-21T16:24:46;6.40;;;1.63;;
46481;SDS011;32193;51.446;6.792;2022-08-21T16:27:11;6.90;;;1.10;;
46481;SDS011;32193;51.446;6.792;2022-08-21T16:29:38;6.95;;;1.45;;
46481;SDS011;32193;51.446;6.792;2022-08-21T16:32:04;7.05;;;1.30;;